Nearby METAR Reports

 

KTEB - Teterboro, New Jersey, USA
Distance from station: ENE 2mi, 4km
Updated: 09/24/2018 7:51am
Clear
Clear
 Wind from NNE
Wind: NNE 10 mph , 17 km/h
Temperature: 57°F , 14°C
Dew Point: 52°F , 11°C
Humidity: 82%
Barometer: 30.41 inHg , 1029.8 hPa
Clouds: Clear
Visibility: 10 miles , 16 km
2018/09/24 11:51 KTEB 241151Z 02009KT 10SM CLR 14/11 A3041 RMK AO2 SLP299 T01390106 10161 20133 $
KNYC - Nyc/Central Park, New York, USA
Distance from station: SE 8mi, 13km
Updated: 09/24/2018 7:51am
Clear
Clear
 Wind from NE
Wind: NE 3 mph , 6 km/h
Temperature: 57°F , 14°C
Dew Point: 52°F , 11°C
Humidity: 82%
Barometer: 30.44 inHg , 1030.8 hPa
Clouds: Clear
Visibility: 10 miles , 16 km
2018/09/24 11:51 KNYC 241151Z AUTO 05003KT 10SM CLR 14/11 A3044 RMK AO2 SLP300 T01440106 10178 20139 51025 $
 
KCDW - Caldwell, New Jersey, USA
Distance from station: WNW 10mi, 17km
Updated: 09/24/2018 7:53am
Clear
Clear
 Wind from NNE
Wind: NNE 3 mph , 6 km/h
Temperature: 54°F , 12°C
Dew Point: 52°F , 11°C
Humidity: 94%
Barometer: 30.43 inHg , 1030.5 hPa
Clouds: Clear
Visibility: 10 miles , 16 km
2018/09/24 11:53 KCDW 241153Z 03003KT 10SM CLR 12/11 A3043 RMK AO2 SLP310 T01170106 10139 20117 51025
KLGA - Nyc/La Guardia, New York, USA
Distance from station: ESE 12mi, 19km
Updated: 09/24/2018 7:51am
Mostly cloudy
Mostly cloudy
 Wind from NE
Wind: NE 14 mph , 22 km/h
Temperature: 61°F , 16°C
Dew Point: 52°F , 11°C
Humidity: 72%
Barometer: 30.41 inHg , 1029.8 hPa
Clouds: Mostly cloudy
Visibility: 10 miles , 16 km
Cloud details: Few Clouds 2300 ft
Few Clouds 8500 ft
Mostly cloudy 25000 ft
2018/09/24 11:51 KLGA 241151Z 04012KT 10SM FEW023 FEW085 BKN250 16/11 A3041 RMK AO2 SLP297 T01560111 10178 20156 51025 $
 
KEWR - Newark, New Jersey, USA
Distance from station: SSW 12mi, 20km
Updated: 09/24/2018 7:51am
Mostly cloudy
Mostly cloudy
 Wind from NNE
Wind: NNE 12 mph , 19 km/h
Temperature: 55°F , 13°C
Dew Point: 52°F , 11°C
Humidity: 88%
Barometer: 30.41 inHg , 1029.8 hPa
Clouds: Mostly cloudy
Visibility: 10 miles , 16 km
Cloud details: Few Clouds 2500 ft
Partly cloudy 8000 ft
Mostly cloudy 25000 ft
2018/09/24 11:51 KEWR 241151Z 02010KT 10SM FEW025 SCT080 BKN250 13/11 A3041 RMK AO2 SLP298 T01330106 10167 20133 53025
KMMU - Morristown Muni, New Jersey, USA
Distance from station: WSW 18mi, 29km
Updated: 09/24/2018 7:50am
Partly cloudy
Partly cloudy
 Wind from ENE
Wind: ENE 7 mph , 11 km/h
Temperature: 54°F , 12°C
Dew Point: 52°F , 11°C
Humidity: 94%
Barometer: 30.43 inHg , 1030.5 hPa
Clouds: Partly cloudy
Visibility: 10 miles , 16 km
Cloud details: Partly cloudy 25000 ft
2018/09/24 11:50 KMMU 241150Z 07006KT 10SM SCT250 12/11 A3043
 
KJFK - Nyc/Jfk Arpt, New York, USA
Distance from station: SE 23mi, 36km
Updated: 09/24/2018 7:51am
Mostly cloudy
Mostly cloudy
 Wind from NE
Wind: NE 12 mph , 19 km/h
Temperature: 57°F , 14°C
Dew Point: 55°F , 13°C
Humidity: 94%
Barometer: 30.41 inHg , 1029.8 hPa
Clouds: Mostly cloudy
Visibility: 10 miles , 16 km
Cloud details: Few Clouds 2300 ft
Few Clouds 11000 ft
Partly cloudy 17000 ft
Mostly cloudy 30000 ft
2018/09/24 11:51 KJFK 241151Z 04010KT 10SM FEW023 FEW110 SCT170 BKN300 14/13 A3041 RMK AO2 SLP299 70004 T01440133 10172 20139 52024
KHPN - White Plains, New York, USA
Distance from station: NE 25mi, 40km
Updated: 09/24/2018 7:56am
Clear
Clear
 Wind from ENE
Wind: ENE 7 mph , 11 km/h
Temperature: 54°F , 12°C
Dew Point: 46°F , 8°C
Humidity: 77%
Barometer: 30.42 inHg , 1030.1 hPa
Clouds: Clear
Visibility: 10 miles , 16 km
2018/09/24 11:56 KHPN 241156Z 06006KT 10SM CLR 12/08 A3042 RMK AO2 SLP302 T01220083 10139 20111 51025
 
KSMQ - Somerville, New Jersey, USA
Distance from station: WSW 34mi, 55km
Updated: 09/24/2018 7:53am
Clear
Clear
 Wind from N
Wind: N 5 mph , 7 km/h
Temperature: 57°F , 14°C
Dew Point: 48°F , 9°C
Humidity: 72%
Barometer: 30.40 inHg , 1029.5 hPa
Clouds: Clear
Visibility: 10 miles , 16 km
2018/09/24 11:53 KSMQ 241153Z AUTO 36004KT 10SM CLR 14/09 A3040 RMK AO2 SLP293 T01390094 10167 20139 53026
K12N - Andover, New Jersey, USA
Distance from station: WNW 36mi, 57km
Updated: 09/24/2018 7:54am

 Wind from NNE
Wind: NNE 9 mph , 15 km/h
Temperature: 52°F , 11°C
Dew Point: 50°F , 10°C
Humidity: 94%
Barometer: 30.43 inHg , 1030.5 hPa
2018/09/24 11:54 K12N 241154Z AUTO 03008KT 11/10 A3043 RMK AO1 SLP307 T01060100 10111 20100 53023
 
KFRG - Farmingdale, New York, USA
Distance from station: ESE 36mi, 58km
Updated: 09/24/2018 7:53am
Clear
Clear
 Wind from NE
Wind: NE 9 mph , 15 km/h
Temperature: 57°F , 14°C
Dew Point: 54°F , 12°C
Humidity: 88%
Barometer: 30.42 inHg , 1030.1 hPa
Clouds: Clear
Visibility: 10 miles , 16 km
2018/09/24 11:53 KFRG 241153Z 05008KT 10SM CLR 14/12 A3042 RMK AO2 SLP299 T01440122 10161 20133 52027
KFWN - Sussex, New Jersey, USA
Distance from station: NW 37mi, 60km
Updated: 09/24/2018 8:02am
Overcast
Overcast
 Wind from NNE
Wind: NNE 10 mph , 17 km/h
Temperature: 52°F , 11°C
Dew Point: 52°F , 11°C
Humidity: 100%
Barometer: 30.45 inHg , 1031.2 hPa
Clouds: Overcast
Visibility: 10 miles , 16 km
Cloud details: Overcast 700 ft
2018/09/24 12:02 KFWN 241202Z AUTO 03009KT 10SM OVC007 11/11 A3045 RMK AO2 CIG 004V009 T01060106
 
KSWF - Newburgh/Stewart, New York, USA
Distance from station: 0 45mi, 72km
Updated: 09/24/2018 7:45am
Partly cloudy
Partly cloudy
 Wind from E
Wind: E 7 mph , 11 km/h
Temperature: 50°F , 10°C
Wind Chill: 47°F , 8°C
Dew Point: 50°F , 10°C
Humidity: 100%
Barometer: 30.46 inHg , 1031.5 hPa
Clouds: Partly cloudy
Visibility: 15 miles , 24 km
Cloud details: Partly cloudy 500 ft
2018/09/24 11:45 KSWF 241145Z 09006KT 15SM SCT005 10/10 A3046
KMGJ - Montgomery, New York, USA
Distance from station: NNW 47mi, 75km
Updated: 09/24/2018 7:54am

 
Barometer: 30.45 inHg , 1031.2 hPa
2018/09/24 11:54 KMGJ 241154Z AUTO A3045 RMK AO2 SLPNO 53023 PWINO $
 
KBLM - Belmar/Farmdale, New Jersey, USA
Distance from station: S 47mi, 76km
Updated: 09/24/2018 8:19am
Partly cloudy
Partly cloudy
 Wind from NE
Wind: NE 10 mph , 17 km/h
Temperature: 63°F , 17°C
Dew Point: 57°F , 14°C
Humidity: 83%
Barometer: 30.41 inHg , 1029.8 hPa
Clouds: Partly cloudy
Visibility: 10 miles , 16 km
Cloud details: Partly cloudy 2100 ft
2018/09/24 12:19 KBLM 241219Z AUTO 05009KT 10SM SCT021 17/14 A3041 RMK AO2
KDXR - Danbury, Connecticut, USA
Distance from station: NE 47mi, 76km
Updated: 09/24/2018 7:53am
Clear
Clear
 Wind from ENE
Wind: ENE 6 mph , 9 km/h
Temperature: 52°F , 11°C
Dew Point: 46°F , 8°C
Humidity: 82%
Barometer: 30.47 inHg , 1031.8 hPa
Clouds: Clear
Visibility: 10 miles , 16 km
2018/09/24 11:53 KDXR 241153Z 06005KT 10SM CLR 11/08 A3047 RMK AO2 SLP316 T01060083 10111 20089 53027
 
KISP - Islip, New York, USA
Distance from station: E 52mi, 83km
Updated: 09/24/2018 7:56am
Mostly cloudy
Mostly cloudy
 Wind from NE
Wind: NE 9 mph , 15 km/h
Temperature: 59°F , 15°C
Dew Point: 55°F , 13°C
Humidity: 88%
Barometer: 30.41 inHg , 1029.8 hPa
Clouds: Mostly cloudy
Visibility: 10 miles , 16 km
Cloud details: Few Clouds 3000 ft
Partly cloudy 7000 ft
Mostly cloudy 25000 ft
2018/09/24 11:56 KISP 241156Z 05008KT 10SM FEW030 SCT070 BKN250 15/13 A3041 RMK AO2 SLP298 T01500128 10161 20133 51027 $
KBDR - Bridgeport, Connecticut, USA
Distance from station: ENE 54mi, 87km
Updated: 09/24/2018 7:52am
Clear
Clear
 Wind from NNE
Wind: NNE 15 mph , 24 km/h
Temperature: 55°F , 13°C
Dew Point: 48°F , 9°C
Humidity: 77%
Barometer: 30.44 inHg , 1030.8 hPa
Clouds: Clear
Visibility: 10 miles , 16 km
2018/09/24 11:52 KBDR 241152Z 03013KT 10SM CLR 13/09 A3044 RMK AO2 SLP307 T01280089 10139 20122 53028
 
KTTN - Trenton, New Jersey, USA
Distance from station: SW 55mi, 88km
Updated: 09/24/2018 7:53am
Overcast
Overcast
 Wind from NE
Wind: NE 10 mph , 17 km/h
Temperature: 61°F , 16°C
Dew Point: 57°F , 14°C
Humidity: 88%
Barometer: 30.38 inHg , 1028.8 hPa
Clouds: Overcast
Visibility: 10 miles , 16 km
Cloud details: Overcast 3600 ft
2018/09/24 11:53 KTTN 241153Z 04009KT 10SM OVC036 16/14 A3038 RMK AO2 SLP281 60000 70014 T01610139 10167 20161 53021
KPOU - Poughkeepsie, New York, USA
Distance from station: N 55mi, 89km
Updated: 09/24/2018 8:14am
Few Clouds
Few Clouds
 Wind from NNE
Wind: NNE 5 mph , 7 km/h
Temperature: 52°F , 11°C
Dew Point: 48°F , 9°C
Humidity: 88%
Barometer: 30.47 inHg , 1031.8 hPa
Clouds: Few Clouds
Visibility: 10 miles , 16 km
Cloud details: Few Clouds 500 ft
2018/09/24 12:14 KPOU 241214Z 02004KT 10SM FEW005 11/09 A3047 RMK AO2 T01060089
 
KNEL - Lakehurst Nas, New Jersey, USA
Distance from station: SSW 59mi, 95km
Updated: 09/24/2018 8:00am
Overcast
Overcast
 Wind from NE
Wind: NE 8 mph , 13 km/h
Temperature: 64°F , 18°C
Dew Point: 59°F , 15°C
Humidity: 83%
Barometer: 30.36 inHg , 1028.1 hPa
Clouds: Overcast
Visibility: 10 miles , 16 km
Cloud details: Overcast 4200 ft
2018/09/24 12:00 KNEL 241200Z 05007KT 10SM OVC042 18/15 A3036 RMK AO2 SLPNO 6//// 7//// T01830156 53014 PNO $
KWRI - Wrightst/Mcguire, New Jersey, USA
Distance from station: SSW 63mi, 102km
Updated: 09/24/2018 8:01am
Overcast
Overcast
 Wind from NE
Wind: NE 10 mph , 17 km/h
Temperature: 63°F , 17°C
Dew Point: 61°F , 16°C
Humidity: 94%
Barometer: 30.36 inHg , 1028.1 hPa
Clouds: Overcast
Visibility: 10 miles , 16 km
Cloud details: Partly cloudy 1000 ft
Mostly cloudy 2800 ft
Overcast 3400 ft
2018/09/24 12:01 KWRI 241201Z 05009KT 10SM SCT010 BKN028 OVC034 17/16 A3036 RMK AO2A CIG 010V028 SLPNO ALSTG ESTMD $
 
KHWV - Shirley, New York, USA
Distance from station: E 64mi, 103km
Updated: 09/24/2018 7:56am
Clear
Clear
 Wind from varies
Wind: varies 3 mph , 6 km/h
Temperature: 57°F , 14°C
Dew Point: 54°F , 12°C
Humidity: 88%
Barometer: 30.42 inHg , 1030.1 hPa
Clouds: Clear
Visibility: 10 miles , 16 km
2018/09/24 11:56 KHWV 241156Z AUTO VRB03KT 10SM CLR 14/12 A3042 RMK AO2 SLP302 T01390117 10144 20117 51029
KMJX - Toms River, New Jersey, USA
Distance from station: S 64mi, 104km
Updated: 09/24/2018 7:56am
Overcast
Overcast
 Wind from ENE
Wind: ENE 9 mph , 15 km/h
Temperature: 63°F , 17°C
Dew Point: 61°F , 16°C
Humidity: 94%
Barometer: 30.38 inHg , 1028.8 hPa
Clouds: Overcast
Visibility: 10 miles , 16 km
Cloud details: Overcast 2000 ft
2018/09/24 11:56 KMJX 241156Z AUTO 06008KT 10SM OVC020 17/16 A3038 RMK AO2 RAB11E22 SLP292 P0000 60005 70071 T01720161 10172 20161 53022
 
KDYL - Doylestown, Pennsylvania, USA
Distance from station: SW 65mi, 104km
Updated: 09/24/2018 7:54am
Overcast
Overcast
 Wind from NNE
Wind: NNE 6 mph , 9 km/h
Temperature: 59°F , 15°C
Dew Point: 55°F , 13°C
Humidity: 88%
Barometer: 30.38 inHg , 1028.8 hPa
Clouds: Overcast
Visibility: 10 miles , 16 km
Cloud details: Overcast 4100 ft
2018/09/24 11:54 KDYL 241154Z AUTO 03005KT 10SM OVC041 15/13 A3038 RMK AO2 SLP288 70010 T01500128 10161 20150 53022
KOXC - Oxford/Waterbury, Connecticut, USA
Distance from station: NE 65mi, 105km
Updated: 09/24/2018 8:12am
Mostly cloudy
Mostly cloudy
 Wind from NE
Wind: NE 15 mph , 24 km/h
Temperature: 52°F , 11°C
Dew Point: 46°F , 8°C
Humidity: 82%
Barometer: 30.47 inHg , 1031.8 hPa
Clouds: Mostly cloudy
Visibility: 10 miles , 16 km
Cloud details: Mostly cloudy 1000 ft
2018/09/24 12:12 KOXC 241212Z 05013KT 10SM BKN010 11/08 A3047 RMK AO2
 
KMSV - Monticello, New York, USA
Distance from station: NNW 69mi, 111km
Updated: 09/24/2018 7:56am
Clear
Clear
 Wind from E
Wind: E 7 mph , 11 km/h
Temperature: 48°F , 9°C
Wind Chill: 45°F , 7°C
Dew Point: 46°F , 8°C
Humidity: 94%
Barometer: 30.45 inHg , 1031.2 hPa
Clouds: Clear
Visibility: 10 miles , 16 km
2018/09/24 11:56 KMSV 241156Z AUTO 08006KT 10SM CLR 09/08 A3045 RMK AO2 SLP318 T00940083 10094 20072 53023
KHVN - New Haven/Tweed, Connecticut, USA
Distance from station: ENE 70mi, 112km
Updated: 09/24/2018 7:53am
Clear
Clear
 Wind from NNE
Wind: NNE 13 mph , 20 km/h, Gust: 25 mph , 41 km/h
Temperature: 54°F , 12°C
Dew Point: 50°F , 10°C
Humidity: 88%
Barometer: 30.45 inHg , 1031.2 hPa
Clouds: Clear
Visibility: 10 miles , 16 km
2018/09/24 11:53 KHVN 241153Z 03011G22KT 10SM CLR 12/10 A3045 RMK AO2 SLP310 T01220100 10122 20106 53028
 
KMPO - Mt. Pocono, Pennsylvania, USA
Distance from station: WNW 70mi, 113km
Updated: 09/24/2018 7:53am
Clear
Clear
 Wind from ENE
Wind: ENE 7 mph , 11 km/h
Temperature: 48°F , 9°C
Wind Chill: 45°F , 7°C
Dew Point: 46°F , 8°C
Humidity: 94%
Barometer: 30.41 inHg , 1029.8 hPa
Clouds: Clear
Visibility: 10 miles , 16 km
2018/09/24 11:53 KMPO 241153Z AUTO 06006KT 10SM CLR 09/08 A3041 RMK AO2 SLP305 T00940078 10100 20072 51020 $
KPNE - Philadelphia/Ne, Pennsylvania, USA
Distance from station: SW 72mi, 116km
Updated: 09/24/2018 7:54am
Overcast
Overcast
 Wind from NE
Wind: NE 9 mph , 15 km/h
Temperature: 63°F , 17°C
Dew Point: 61°F , 16°C
Humidity: 94%
Barometer: 30.39 inHg , 1029.1 hPa
Clouds: Overcast
Visibility: 10 miles , 16 km
Cloud details: Overcast 3000 ft
2018/09/24 11:54 KPNE 241154Z 05008KT 10SM OVC030 17/16 A3039 RMK AO2 SLP291 P0001 60004 70052 T01720156 10178 20172 51017
 
KABE - Allentown, Pennsylvania, USA
Distance from station: W 73mi, 117km
Updated: 09/24/2018 7:51am
Overcast
Overcast
 Wind from NE
Wind: NE 12 mph , 19 km/h
Temperature: 57°F , 14°C
Dew Point: 50°F , 10°C
Humidity: 77%
Barometer: 30.40 inHg , 1029.5 hPa
Clouds: Overcast
Visibility: 10 miles , 16 km
Cloud details: Overcast 3600 ft
2018/09/24 11:51 KABE 241151Z 05010KT 10SM OVC036 14/10 A3040 RMK AO2 SLP294 T01440100 10156 20144 53023
KUKT - Quakertown Arp, Pennsylvania, USA
Distance from station: WSW 74mi, 119km
Updated: 09/24/2018 8:15am
Overcast
Overcast
 Wind from calm
Wind: Calm
Temperature: 59°F , 15°C
Dew Point: 57°F , 14°C
Humidity: 94%
Barometer: 30.40 inHg , 1029.5 hPa
Clouds: Overcast
Visibility: 10 miles , 16 km
Cloud details: Overcast 3700 ft
2018/09/24 12:15 KUKT 241215Z AUTO 00000KT 10SM OVC037 15/14 A3040 RMK A01
 
KVAY - Mount Holly, New Jersey, USA
Distance from station: SSW 75mi, 120km
Updated: 09/24/2018 8:25am
Overcast
Overcast
 Wind from ENE
Wind: ENE 5 mph , 7 km/h
Temperature: 63°F , 17°C
Dew Point: 63°F , 17°C
Humidity: 100%
Barometer: 30.38 inHg , 1028.8 hPa
Clouds: Overcast
Visibility: 10 miles , 16 km
Cloud details: Partly cloudy 1100 ft
Mostly cloudy 2400 ft
Overcast 3100 ft
2018/09/24 12:25 KVAY 241225Z AUTO 06004KT 10SM SCT011 BKN024 OVC031 17/17 A3038 RMK AO2 RAE21 P0000 T01670167
KXLL - Allentown Queen, Pennsylvania, USA
Distance from station: WSW 76mi, 122km
Updated: 09/24/2018 8:15am
Overcast
Overcast
 Wind from NE
Wind: NE 12 mph , 19 km/h
Barometer: 30.41 inHg , 1029.8 hPa
Clouds: Overcast
Visibility: 10 miles , 16 km
Cloud details: Overcast 3500 ft
2018/09/24 12:15 KXLL 241215Z AUTO 04010KT 10SM OVC035 A3041 RMK AO2
 
KFOK - Westhampton Beac, New York, USA
Distance from station: E 77mi, 124km
Updated: 09/24/2018 7:53am
Clear
Clear
 Wind from NE
Wind: NE 8 mph , 13 km/h
Temperature: 61°F , 16°C
Dew Point: 55°F , 13°C
Humidity: 83%
Barometer: 30.44 inHg , 1030.8 hPa
Clouds: Clear
Visibility: 10 miles , 16 km
2018/09/24 11:53 KFOK 241153Z 05007KT 10SM CLR 16/13 A3044 RMK AO2 SLP307 T01560128 10156 20100 51030
KLOM - Philly Wings F, Pennsylvania, USA
Distance from station: SW 79mi, 128km
Updated: 09/24/2018 8:15am
Mostly cloudy
Mostly cloudy
 Wind from NE
Wind: NE 3 mph , 6 km/h
Temperature: 59°F , 15°C
Dew Point: 59°F , 15°C
Humidity: 100%
Barometer: 30.40 inHg , 1029.5 hPa
Clouds: Mostly cloudy
Visibility: 10 miles , 16 km
Cloud details: Mostly cloudy 2900 ft
Mostly cloudy 3400 ft
2018/09/24 12:15 KLOM 241215Z AUTO 05003KT 10SM BKN029 BKN034 15/15 A3040 RMK AO1
 
KMMK - Meriden, Connecticut, USA
Distance from station: NE 80mi, 128km
Updated: 09/24/2018 7:53am
Partly cloudy
Partly cloudy
 Wind from NNE
Wind: NNE 6 mph , 9 km/h
Temperature: 52°F , 11°C
Dew Point: 46°F , 8°C
Humidity: 82%
Barometer: 30.48 inHg , 1032.2 hPa
Clouds: Partly cloudy
Visibility: 10 miles , 16 km
Cloud details: Partly cloudy 1600 ft
2018/09/24 11:53 KMMK 241153Z AUTO 02005KT 10SM SCT016 11/08 A3048 RMK AO2 SLP320 T01060078 10111 20094 53029
KPTW - Pottstown, Pennsylvania, USA
Distance from station: WSW 88mi, 141km
Updated: 09/24/2018 7:54am
Overcast
Overcast
 Wind from ENE
Wind: ENE 8 mph , 13 km/h
Temperature: 61°F , 16°C
Dew Point: 57°F , 14°C
Humidity: 88%
Barometer: 30.40 inHg , 1029.5 hPa
Clouds: Overcast
Visibility: 9 miles , 14 km
Cloud details: Partly cloudy 1500 ft
Overcast 3100 ft
2018/09/24 11:54 KPTW 241154Z AUTO 06007KT 9SM SCT015 OVC031 16/14 A3040 RMK AO2 SLP290 70009 T01560144 10156 20150 53021
 
KSNC - Chester, Connecticut, USA
Distance from station: ENE 90mi, 146km
Updated: 09/24/2018 8:15am
Few Clouds
Few Clouds
 Wind from NE
Wind: NE 7 mph , 11 km/h
Temperature: 55°F , 13°C
Dew Point: 52°F , 11°C
Humidity: 88%
Barometer: 30.47 inHg , 1031.8 hPa
Clouds: Few Clouds
Visibility: 10 miles , 16 km
Cloud details: Few Clouds 1100 ft
2018/09/24 12:15 KSNC 241215Z AUTO 04006KT 10SM FEW011 13/11 A3047 RMK AO2
KPHL - Philadelphia, Pennsylvania, USA
Distance from station: SW 91mi, 146km
Updated: 09/24/2018 7:54am
Light drizzle, Mist, Overcast
Light drizzle, Mist, Overcast
 Wind from ENE
Wind: ENE 10 mph , 17 km/h
Temperature: 63°F , 17°C
Dew Point: 61°F , 16°C
Humidity: 94%
Barometer: 30.37 inHg , 1028.4 hPa
Summary: Light drizzle, Mist
Clouds: Overcast
Visibility: 2 miles , 3 km
Cloud details: Mostly cloudy 600 ft
Mostly cloudy 900 ft
Overcast 1400 ft
2018/09/24 11:54 KPHL 241154Z 06009KT 2SM -DZ BR BKN006 BKN009 OVC014 17/16 A3037 RMK AO2 RAE00DZB00 SLP283 P0001 60001 70070 T01670161 10172 20161 53020 $
 
KAVP - Avoca/Wilkes B., Pennsylvania, USA
Distance from station: WNW 91mi, 147km
Updated: 09/24/2018 7:54am
Clear
Clear
 Wind from NE
Wind: NE 3 mph , 6 km/h
Temperature: 54°F , 12°C
Dew Point: 48°F , 9°C
Humidity: 82%
Barometer: 30.41 inHg , 1029.8 hPa
Clouds: Clear
Visibility: 10 miles , 16 km
2018/09/24 11:54 KAVP 241154Z 04003KT 10SM CLR 12/09 A3041 RMK AO2 SLP298 T01170094 10117 20100 53021
KHFD - Hartford/Brainar, Connecticut, USA
Distance from station: NE 96mi, 155km
Updated: 09/24/2018 7:53am
Overcast
Overcast
 Wind from N
Wind: N 9 mph , 15 km/h
Temperature: 52°F , 11°C
Dew Point: 48°F , 9°C
Humidity: 88%
Barometer: 30.49 inHg , 1032.5 hPa
Clouds: Overcast
Visibility: 10 miles , 16 km
Cloud details: Overcast 1700 ft
2018/09/24 11:53 KHFD 241153Z 01008KT 10SM OVC017 11/09 A3049 RMK AO2 SLP323 T01110089 10111 20094 53030
 
KHTO - East Hampton, New York, USA
Distance from station: E 96mi, 155km
Updated: 09/24/2018 8:15am
Partly cloudy
Partly cloudy
 Wind from NE
Wind: NE 13 mph , 20 km/h, Gust: 16 mph , 26 km/h
Temperature: 61°F , 16°C
Dew Point: 55°F , 13°C
Humidity: 83%
Barometer: 30.43 inHg , 1030.5 hPa
Clouds: Partly cloudy
Visibility: 10 miles , 16 km
Cloud details: Partly cloudy 1600 ft
Partly cloudy 2800 ft
2018/09/24 12:15 KHTO 241215Z AUTO 05011G14KT 10SM SCT016 SCT028 16/13 A3043 RMK AO2 T01560132
KACY - Atlantic City, New Jersey, USA
Distance from station: SSW 99mi, 160km
Updated: 09/24/2018 7:54am
Overcast
Overcast
 Wind from E
Wind: E 9 mph , 15 km/h
Temperature: 64°F , 18°C
Dew Point: 63°F , 17°C
Humidity: 94%
Barometer: 30.35 inHg , 1027.8 hPa
Clouds: Overcast
Visibility: 10 miles , 16 km
Cloud details: Mostly cloudy 2200 ft
Overcast 2900 ft
2018/09/24 11:54 KACY 241154Z 09008KT 10SM BKN022 OVC029 18/17 A3035 RMK AO2 SLP276 60021 70138 T01830167 10183 20172 53018